USP2407 MGGT-MROC
Flight info
| Callsign | USP2407 |
|---|---|
| Flight time | N/A |
| Altitude | 37000 |
| Route | KAPAN2A KAPAN UG436 LIB BARRA3L |
| Aircraft | B763/H-SDE3FGHIM3RWXY/LB1 |
Departure
| Time | 2026-04-22 14:23 |
|---|---|
| Airport | La Aurora International Airport (MGGT) |
Arrival
| Time | N/A |
|---|---|
| Airport | Juan Santamaría International Airport (MROC) |
| Time | Latitude | Longitude | Altitude | Speed | Heading |
|---|---|---|---|---|---|
| 2026-04-22 14:03 | 14.57377 | -90.52892 | 4900 ft | 0 kts | 289° |
| 2026-04-22 14:11 | 14.57380 | -90.52902 | 4900 ft | 3 kts | 283° |
| 2026-04-22 14:11 | 14.57369 | -90.52940 | 4899 ft | 7 kts | 230° |
| 2026-04-22 14:11 | 14.57306 | -90.52984 | 4898 ft | 12 kts | 213° |
| 2026-04-22 14:12 | 14.57232 | -90.53024 | 4896 ft | 12 kts | 201° |
| 2026-04-22 14:12 | 14.57097 | -90.53071 | 4891 ft | 27 kts | 198° |
| 2026-04-22 14:12 | 14.57079 | -90.53147 | 4888 ft | 13 kts | 353° |
| 2026-04-22 14:12 | 14.57151 | -90.53128 | 4890 ft | 7 kts | 15° |
| 2026-04-22 14:13 | 14.57179 | -90.53119 | 4891 ft | 1 kts | 19° |
| 2026-04-22 14:13 | 14.57181 | -90.53118 | 4891 ft | 0 kts | 19° |
| 2026-04-22 14:22 | 14.57486 | -90.53018 | 4897 ft | 72 kts | 17° |
| 2026-04-22 14:22 | 14.58151 | -90.52806 | 4891 ft | 127 kts | 17° |
| 2026-04-22 14:22 | 14.60356 | -90.52103 | 5372 ft | 185 kts | 16° |
| 2026-04-22 14:23 | 14.61737 | -90.51704 | 5571 ft | 220 kts | 16° |
| 2026-04-22 14:23 | 14.63182 | -90.51414 | 6061 ft | 213 kts | 3° |
| 2026-04-22 14:23 | 14.64682 | -90.51346 | 6558 ft | 215 kts | 5° |
| 2026-04-22 14:23 | 14.66164 | -90.51192 | 7031 ft | 217 kts | 8° |
| 2026-04-22 14:24 | 14.67630 | -90.50798 | 7554 ft | 223 kts | 34° |
| 2026-04-22 14:24 | 14.68638 | -90.49647 | 8263 ft | 221 kts | 68° |
| 2026-04-22 14:24 | 14.68820 | -90.48057 | 8833 ft | 228 kts | 103° |
| 2026-04-22 14:24 | 14.68121 | -90.46591 | 9414 ft | 234 kts | 124° |
| 2026-04-22 14:25 | 14.67149 | -90.45199 | 9826 ft | 247 kts | 123° |
| 2026-04-22 14:25 | 14.66148 | -90.43732 | 10155 ft | 254 kts | 124° |
| 2026-04-22 14:25 | 14.65112 | -90.42217 | 10536 ft | 265 kts | 123° |
| 2026-04-22 14:25 | 14.63960 | -90.40666 | 10931 ft | 281 kts | 137° |
| 2026-04-22 14:26 | 14.62299 | -90.39517 | 11388 ft | 296 kts | 150° |
| 2026-04-22 14:26 | 14.60467 | -90.38379 | 11798 ft | 313 kts | 146° |
| 2026-04-22 14:26 | 14.58608 | -90.37105 | 12202 ft | 331 kts | 145° |
| 2026-04-22 14:26 | 14.56649 | -90.35719 | 12587 ft | 350 kts | 144° |
| 2026-04-22 14:27 | 14.54597 | -90.34240 | 12980 ft | 369 kts | 144° |
| 2026-04-22 14:27 | 14.52433 | -90.32664 | 13375 ft | 387 kts | 144° |
| 2026-04-22 14:27 | 14.50201 | -90.31033 | 13765 ft | 406 kts | 144° |
| 2026-04-22 14:27 | 14.47823 | -90.29290 | 14134 ft | 424 kts | 144° |
| 2026-04-22 14:28 | 14.45393 | -90.27506 | 14479 ft | 434 kts | 143° |
| 2026-04-22 14:28 | 14.42929 | -90.25697 | 14815 ft | 433 kts | 144° |
| 2026-04-22 14:28 | 14.40485 | -90.23903 | 15250 ft | 431 kts | 143° |
| 2026-04-22 14:28 | 14.37997 | -90.22075 | 15703 ft | 438 kts | 143° |
| 2026-04-22 14:29 | 14.35490 | -90.20233 | 16160 ft | 449 kts | 143° |
| 2026-04-22 14:29 | 14.32928 | -90.18353 | 16613 ft | 454 kts | 143° |
| 2026-04-22 14:29 | 14.30360 | -90.16467 | 17056 ft | 451 kts | 143° |
| 2026-04-22 14:29 | 14.27942 | -90.14452 | 17499 ft | 442 kts | 135° |
| 2026-04-22 14:30 | 14.25887 | -90.12087 | 17980 ft | 441 kts | 128° |
| 2026-04-22 14:30 | 14.23901 | -90.09641 | 18459 ft | 448 kts | 129° |
| 2026-04-22 14:30 | 14.21887 | -90.07173 | 18933 ft | 452 kts | 129° |
| 2026-04-22 14:30 | 14.19861 | -90.04689 | 19406 ft | 454 kts | 129° |
| 2026-04-22 14:31 | 14.17852 | -90.02216 | 19873 ft | 455 kts | 129° |
| 2026-04-22 14:31 | 14.15802 | -89.99696 | 20353 ft | 460 kts | 129° |
| 2026-04-22 14:31 | 14.13749 | -89.97169 | 20826 ft | 465 kts | 129° |
| 2026-04-22 14:31 | 14.11652 | -89.94589 | 21305 ft | 468 kts | 129° |
| 2026-04-22 14:32 | 14.09555 | -89.92007 | 21783 ft | 472 kts | 129° |
| 2026-04-22 14:32 | 14.07457 | -89.89426 | 22255 ft | 474 kts | 129° |
| 2026-04-22 14:32 | 14.05332 | -89.86811 | 22742 ft | 477 kts | 129° |
| 2026-04-22 14:32 | 14.03223 | -89.84135 | 23239 ft | 481 kts | 128° |
| 2026-04-22 14:33 | 14.01127 | -89.81470 | 23733 ft | 485 kts | 128° |
| 2026-04-22 14:33 | 13.98996 | -89.78754 | 24229 ft | 488 kts | 129° |
| 2026-04-22 14:33 | 13.96856 | -89.76034 | 24724 ft | 492 kts | 129° |
| 2026-04-22 14:33 | 13.94703 | -89.73296 | 25219 ft | 497 kts | 129° |
| 2026-04-22 14:34 | 13.92502 | -89.70499 | 25717 ft | 500 kts | 129° |
| 2026-04-22 14:34 | 13.90327 | -89.67736 | 26204 ft | 499 kts | 129° |
| 2026-04-22 14:34 | 13.88165 | -89.64990 | 26691 ft | 496 kts | 129° |
| 2026-04-22 14:34 | 13.85975 | -89.62209 | 27186 ft | 494 kts | 129° |
| 2026-04-22 14:35 | 13.83841 | -89.59499 | 27675 ft | 493 kts | 129° |
| 2026-04-22 14:35 | 13.81668 | -89.56741 | 28173 ft | 494 kts | 129° |
| 2026-04-22 14:35 | 13.79506 | -89.53999 | 28664 ft | 493 kts | 130° |
| 2026-04-22 14:35 | 13.77360 | -89.51276 | 29164 ft | 492 kts | 130° |
| 2026-04-22 14:36 | 13.75198 | -89.48535 | 29667 ft | 490 kts | 130° |
| 2026-04-22 14:36 | 13.73081 | -89.45853 | 30166 ft | 488 kts | 130° |
| 2026-04-22 14:36 | 13.70922 | -89.43117 | 30674 ft | 487 kts | 130° |
| 2026-04-22 14:36 | 13.68820 | -89.40454 | 31174 ft | 485 kts | 130° |
| 2026-04-22 14:37 | 13.66685 | -89.37751 | 31682 ft | 483 kts | 130° |
| 2026-04-22 14:37 | 13.64569 | -89.35072 | 32190 ft | 480 kts | 130° |
| 2026-04-22 14:37 | 13.62485 | -89.32433 | 32689 ft | 477 kts | 130° |
| 2026-04-22 14:37 | 13.60401 | -89.29797 | 33183 ft | 474 kts | 130° |
| 2026-04-22 14:38 | 13.58332 | -89.27181 | 33155 ft | 475 kts | 130° |
| 2026-04-22 14:38 | 13.54141 | -89.21884 | 33166 ft | 481 kts | 130° |
| 2026-04-22 14:39 | 13.49914 | -89.16544 | 33136 ft | 481 kts | 130° |
| 2026-04-22 14:39 | 13.45702 | -89.11227 | 33126 ft | 479 kts | 130° |
| 2026-04-22 14:40 | 13.39402 | -89.03246 | 33112 ft | 481 kts | 130° |
| 2026-04-22 14:40 | 13.35206 | -88.97919 | 33106 ft | 479 kts | 130° |
| 2026-04-22 14:41 | 13.31026 | -88.92615 | 33101 ft | 478 kts | 130° |
| 2026-04-22 14:41 | 13.26839 | -88.87308 | 33096 ft | 479 kts | 130° |
| 2026-04-22 14:42 | 13.22646 | -88.81995 | 33094 ft | 479 kts | 130° |
| 2026-04-22 14:42 | 13.18469 | -88.76704 | 33094 ft | 478 kts | 130° |
| 2026-04-22 14:43 | 13.14272 | -88.71392 | 33083 ft | 478 kts | 130° |
| 2026-04-22 14:43 | 13.10092 | -88.66104 | 33083 ft | 479 kts | 130° |
| 2026-04-22 14:44 | 13.05895 | -88.60800 | 33077 ft | 479 kts | 130° |
| 2026-04-22 14:44 | 13.01700 | -88.55499 | 33080 ft | 479 kts | 130° |
| 2026-04-22 14:45 | 12.97519 | -88.50221 | 33078 ft | 478 kts | 130° |
| 2026-04-22 14:45 | 12.93304 | -88.44902 | 33076 ft | 478 kts | 130° |
| 2026-04-22 14:46 | 12.89114 | -88.39617 | 33070 ft | 479 kts | 130° |
| 2026-04-22 14:46 | 12.84934 | -88.34349 | 33071 ft | 479 kts | 130° |
| 2026-04-22 14:47 | 12.80718 | -88.29038 | 33066 ft | 479 kts | 130° |
| 2026-04-22 14:47 | 12.76519 | -88.23753 | 33070 ft | 478 kts | 130° |
| 2026-04-22 14:48 | 12.72323 | -88.18474 | 33069 ft | 478 kts | 130° |
| 2026-04-22 14:48 | 12.68138 | -88.13210 | 33066 ft | 479 kts | 130° |
| 2026-04-22 14:49 | 12.63913 | -88.07902 | 33069 ft | 479 kts | 130° |
| 2026-04-22 14:49 | 12.59724 | -88.02639 | 33065 ft | 478 kts | 130° |
| 2026-04-22 14:50 | 12.55508 | -87.97348 | 33065 ft | 478 kts | 130° |
| 2026-04-22 14:50 | 12.51312 | -87.92090 | 33067 ft | 478 kts | 130° |
| 2026-04-22 14:51 | 12.47103 | -87.86819 | 33068 ft | 478 kts | 130° |
| 2026-04-22 14:51 | 12.42913 | -87.81574 | 33068 ft | 478 kts | 130° |
| 2026-04-22 14:52 | 12.38696 | -87.76299 | 33070 ft | 478 kts | 130° |
| 2026-04-22 14:52 | 12.34484 | -87.71032 | 33069 ft | 478 kts | 130° |
| 2026-04-22 14:53 | 12.30284 | -87.65784 | 33068 ft | 479 kts | 130° |
| 2026-04-22 14:53 | 12.26073 | -87.60523 | 33070 ft | 477 kts | 130° |
| 2026-04-22 14:54 | 12.21856 | -87.55260 | 33070 ft | 477 kts | 130° |
| 2026-04-22 14:54 | 12.17653 | -87.50016 | 33076 ft | 477 kts | 130° |
| 2026-04-22 14:55 | 12.13463 | -87.44792 | 33082 ft | 477 kts | 130° |
| 2026-04-22 14:55 | 12.09235 | -87.39525 | 33084 ft | 477 kts | 130° |
| 2026-04-22 14:56 | 12.05050 | -87.34311 | 33086 ft | 477 kts | 130° |
| 2026-04-22 14:56 | 12.00815 | -87.29039 | 33087 ft | 479 kts | 130° |
| 2026-04-22 14:57 | 11.96608 | -87.23805 | 33085 ft | 479 kts | 130° |
| 2026-04-22 14:57 | 11.92387 | -87.18557 | 33083 ft | 478 kts | 130° |
| 2026-04-22 14:58 | 11.88175 | -87.13322 | 33089 ft | 477 kts | 130° |
| 2026-04-22 14:58 | 11.83953 | -87.08078 | 33086 ft | 477 kts | 130° |
| 2026-04-22 14:59 | 11.79744 | -87.02853 | 33089 ft | 477 kts | 130° |
| 2026-04-22 14:59 | 11.75541 | -86.97638 | 33089 ft | 479 kts | 130° |
| 2026-04-22 15:00 | 11.71279 | -86.92355 | 33090 ft | 479 kts | 130° |
| 2026-04-22 15:00 | 11.67041 | -86.87103 | 33088 ft | 478 kts | 130° |
| 2026-04-22 15:01 | 11.64230 | -86.83621 | 33088 ft | 478 kts | 130° |
| 2026-04-22 15:01 | 11.58604 | -86.76656 | 33089 ft | 478 kts | 129° |
| 2026-04-22 15:02 | 11.54367 | -86.71413 | 33091 ft | 478 kts | 130° |
| 2026-04-22 15:02 | 11.50142 | -86.66188 | 33090 ft | 478 kts | 130° |
| 2026-04-22 15:03 | 11.45895 | -86.60940 | 33090 ft | 478 kts | 130° |
| 2026-04-22 15:03 | 11.41675 | -86.55727 | 33091 ft | 480 kts | 130° |